createdAt,value
2022-11-14T00:00:18.396Z,556
2022-11-14T00:02:17.472Z,541
2022-11-14T00:04:17.438Z,530
2022-11-14T00:06:18.210Z,528
2022-11-14T00:08:17.941Z,452
2022-11-14T00:10:17.619Z,596
2022-11-14T00:12:18.314Z,497
2022-11-14T00:14:18.142Z,548
2022-11-14T00:16:17.952Z,588
2022-11-14T00:18:17.908Z,533
2022-11-14T00:20:18.332Z,467
2022-11-14T00:22:18.190Z,550
2022-11-14T00:24:17.675Z,531
2022-11-14T00:26:17.613Z,539
2022-11-14T00:28:17.865Z,507
2022-11-14T00:30:17.627Z,572
2022-11-14T00:32:17.717Z,530
2022-11-14T00:34:17.508Z,534
2022-11-14T00:36:18.224Z,600
2022-11-14T00:38:18.022Z,459
2022-11-14T00:40:18.103Z,546
2022-11-14T00:42:17.996Z,573
2022-11-14T00:44:18.017Z,550
2022-11-14T00:46:18.096Z,510
2022-11-14T00:48:18.292Z,537
2022-11-14T00:50:17.976Z,549
2022-11-14T00:52:18.163Z,540
2022-11-14T00:54:17.443Z,532
2022-11-14T00:56:17.594Z,481
2022-11-14T00:58:17.867Z,542
2022-11-14T01:00:17.581Z,541
2022-11-14T01:02:17.821Z,532
2022-11-14T01:04:17.614Z,552
2022-11-14T01:06:17.557Z,530
2022-11-14T01:08:18.003Z,529
2022-11-14T01:10:18.082Z,554
2022-11-14T01:12:17.805Z,540
2022-11-14T01:14:18.119Z,489
2022-11-14T01:16:18.051Z,590
2022-11-14T01:18:17.998Z,568
2022-11-14T01:20:18.231Z,531
2022-11-14T01:22:19.248Z,537
2022-11-14T01:24:17.357Z,511
2022-11-14T01:26:18.362Z,522
2022-11-14T01:28:18.201Z,586
2022-11-14T01:30:17.485Z,505
2022-11-14T01:32:18.386Z,530
2022-11-14T01:34:17.496Z,532
2022-11-14T01:36:18.400Z,579
2022-11-14T01:38:18.232Z,536
2022-11-14T01:40:17.716Z,574
2022-11-14T01:42:20.080Z,489
2022-11-14T01:44:17.967Z,552
2022-11-14T01:46:17.809Z,529
2022-11-14T01:48:17.636Z,522
2022-11-14T01:50:17.501Z,530
2022-11-14T01:52:17.575Z,521
2022-11-14T01:54:18.373Z,505
2022-11-14T01:56:18.144Z,562
2022-11-14T01:58:17.868Z,541
2022-11-14T02:00:18.329Z,538
2022-11-14T02:02:17.729Z,540
2022-11-14T02:04:17.784Z,508
2022-11-14T02:06:17.496Z,596
2022-11-14T02:08:17.636Z,564
2022-11-14T02:10:17.888Z,542
2022-11-14T02:12:17.446Z,540
2022-11-14T02:14:17.445Z,560
2022-11-14T02:16:18.284Z,578
2022-11-14T02:18:18.173Z,524
2022-11-14T02:20:17.985Z,532
2022-11-14T02:22:17.765Z,594
2022-11-14T02:24:17.855Z,549
2022-11-14T02:26:18.128Z,485
2022-11-14T02:28:17.490Z,526
2022-11-14T02:30:18.321Z,521
2022-11-14T02:32:18.144Z,450
2022-11-14T02:34:18.342Z,576
2022-11-14T02:36:17.638Z,628
2022-11-14T02:38:17.392Z,555
2022-11-14T02:40:18.433Z,511
2022-11-14T02:42:18.253Z,566
2022-11-14T02:44:18.023Z,549
2022-11-14T02:46:17.774Z,570
2022-11-14T02:48:18.228Z,519
2022-11-14T02:50:18.105Z,589
2022-11-14T02:52:17.411Z,550
2022-11-14T02:54:17.697Z,583
2022-11-14T02:56:17.433Z,636
2022-11-14T02:58:17.674Z,578
2022-11-14T03:00:18.017Z,548
2022-11-14T03:02:17.751Z,651
2022-11-14T03:04:17.745Z,580
2022-11-14T03:06:17.741Z,560
2022-11-14T03:08:17.534Z,556
2022-11-14T03:10:17.868Z,586
2022-11-14T03:12:17.694Z,578
2022-11-14T03:14:17.887Z,580
2022-11-14T03:16:17.568Z,591
2022-11-14T03:18:17.734Z,576
2022-11-14T03:20:17.673Z,618
2022-11-14T03:22:17.484Z,557
2022-11-14T03:24:18.249Z,574
2022-11-14T03:26:18.038Z,559
2022-11-14T03:28:18.408Z,576
2022-11-14T03:30:17.724Z,596
2022-11-14T03:32:18.066Z,579
2022-11-14T03:34:17.808Z,588
2022-11-14T03:36:17.706Z,568
2022-11-14T03:38:17.876Z,546
2022-11-14T03:40:17.401Z,603
2022-11-14T03:42:17.514Z,572
2022-11-14T03:44:17.557Z,579
2022-11-14T03:46:17.766Z,622
2022-11-14T03:48:17.570Z,577
2022-11-14T03:50:17.485Z,620
2022-11-14T03:52:17.488Z,571
2022-11-14T03:54:18.277Z,560
2022-11-14T03:56:18.010Z,648
2022-11-14T03:58:17.789Z,576
2022-11-14T04:00:17.678Z,551
2022-11-14T04:02:17.449Z,572
2022-11-14T04:04:17.662Z,599
2022-11-14T04:06:17.432Z,622
2022-11-14T04:08:18.174Z,550
2022-11-14T04:10:17.652Z,600
2022-11-14T04:12:17.475Z,545
2022-11-14T04:14:17.573Z,555
2022-11-14T04:16:17.487Z,556
2022-11-14T04:18:18.163Z,590
2022-11-14T04:20:17.964Z,562
2022-11-14T04:22:18.150Z,557
2022-11-14T04:24:17.630Z,549
2022-11-14T04:26:17.397Z,577
2022-11-14T04:28:18.178Z,556
2022-11-14T04:30:17.990Z,548
2022-11-14T04:32:17.974Z,542
2022-11-14T04:34:17.754Z,529
2022-11-14T04:36:17.587Z,552
2022-11-14T04:38:18.302Z,539
2022-11-14T04:40:18.124Z,518
2022-11-14T04:42:18.140Z,618
2022-11-14T04:44:18.284Z,560
2022-11-14T04:46:18.052Z,479
2022-11-14T04:48:17.896Z,540
2022-11-14T04:50:17.533Z,556
2022-11-14T04:52:17.335Z,546
2022-11-14T04:54:17.656Z,549
2022-11-14T04:56:17.574Z,525
2022-11-14T04:58:17.807Z,526
2022-11-14T05:00:17.667Z,537
2022-11-14T05:02:17.511Z,544
2022-11-14T05:04:18.351Z,539
2022-11-14T05:06:17.581Z,548
2022-11-14T05:08:17.427Z,529
2022-11-14T05:10:17.549Z,533
2022-11-14T05:12:18.356Z,540
2022-11-14T05:14:18.043Z,535
2022-11-14T05:16:17.990Z,552
2022-11-14T05:18:17.968Z,527
2022-11-14T05:20:18.191Z,539
2022-11-14T05:22:17.987Z,534
2022-11-14T05:24:17.893Z,523
2022-11-14T05:26:17.324Z,548
2022-11-14T05:28:18.109Z,514
2022-11-14T05:30:17.457Z,603
2022-11-14T05:32:17.943Z,544
2022-11-14T05:34:17.811Z,531
2022-11-14T05:36:17.758Z,536
2022-11-14T05:38:17.642Z,539
2022-11-14T05:40:17.429Z,517
2022-11-14T05:42:17.699Z,529
2022-11-14T05:44:18.195Z,508
2022-11-14T05:46:18.003Z,563
2022-11-14T05:48:17.840Z,541
2022-11-14T05:50:17.970Z,543
2022-11-14T05:52:18.201Z,536
2022-11-14T05:54:18.250Z,535
2022-11-14T05:56:18.133Z,533
2022-11-14T05:58:18.075Z,522
2022-11-14T06:00:17.975Z,534
2022-11-14T06:02:17.982Z,521
2022-11-14T06:04:18.209Z,520
2022-11-14T06:06:17.949Z,537
2022-11-14T06:08:17.740Z,532
2022-11-14T06:10:17.564Z,514
2022-11-14T06:12:18.197Z,542
2022-11-14T06:14:18.007Z,566
2022-11-14T06:16:17.895Z,526
2022-11-14T06:18:17.324Z,532
2022-11-14T06:20:18.108Z,532
2022-11-14T06:22:17.802Z,534
2022-11-14T06:24:17.622Z,526
2022-11-14T06:26:17.920Z,522
2022-11-14T06:28:18.055Z,474
2022-11-14T06:30:18.102Z,537
2022-11-14T06:32:18.266Z,539
2022-11-14T06:34:18.359Z,493
2022-11-14T06:36:18.098Z,548
2022-11-14T06:38:17.890Z,524
2022-11-14T06:40:17.770Z,499
2022-11-14T06:42:17.563Z,462
2022-11-14T06:44:18.496Z,574
2022-11-14T06:46:18.329Z,532
2022-11-14T06:48:18.309Z,498
2022-11-14T06:50:18.153Z,513
2022-11-14T06:52:17.465Z,518
2022-11-14T06:54:18.045Z,493
2022-11-14T06:56:17.780Z,532
2022-11-14T06:58:18.051Z,485
2022-11-14T07:00:17.577Z,515
2022-11-14T07:02:21.827Z,557
2022-11-14T07:04:17.839Z,582
2022-11-14T07:06:17.748Z,535
2022-11-14T07:08:20.971Z,522
2022-11-14T07:10:18.048Z,615
2022-11-14T07:12:17.873Z,598
2022-11-14T07:14:17.842Z,621
2022-11-14T07:16:17.677Z,624
2022-11-14T07:18:17.856Z,544
2022-11-14T07:20:18.336Z,615
2022-11-14T07:22:17.464Z,625
2022-11-14T07:24:18.350Z,608
2022-11-14T07:26:17.621Z,609
2022-11-14T07:28:18.261Z,633
2022-11-14T07:30:17.904Z,605
2022-11-14T07:32:17.777Z,620
2022-11-14T07:34:17.602Z,558
2022-11-14T07:36:17.424Z,700
2022-11-14T07:38:17.737Z,584
2022-11-14T07:40:17.530Z,609
2022-11-14T07:42:17.999Z,612
2022-11-14T07:44:17.793Z,599
2022-11-14T07:46:17.698Z,613
2022-11-14T07:48:17.451Z,601
2022-11-14T07:50:20.471Z,629
2022-11-14T07:52:17.804Z,620
2022-11-14T07:54:17.588Z,621
2022-11-14T07:56:18.053Z,593
2022-11-14T07:58:17.969Z,642
2022-11-14T08:00:17.741Z,662
2022-11-14T08:02:17.783Z,640
2022-11-14T08:04:18.894Z,689
2022-11-14T08:06:17.772Z,545
2022-11-14T08:08:17.711Z,644
2022-11-14T08:10:18.218Z,628
2022-11-14T08:12:18.395Z,622
2022-11-14T08:14:17.972Z,602
2022-11-14T08:16:18.038Z,592
2022-11-14T08:18:18.290Z,618
2022-11-14T08:20:17.716Z,617
2022-11-14T08:22:18.333Z,624
2022-11-14T08:24:17.991Z,624
2022-11-14T08:26:18.039Z,646
2022-11-14T08:28:18.011Z,611
2022-11-14T08:30:18.139Z,625
2022-11-14T08:32:17.668Z,672
2022-11-14T08:34:17.620Z,607
2022-11-14T08:36:17.584Z,682
2022-11-14T08:38:17.396Z,622
2022-11-14T08:40:18.309Z,673
2022-11-14T08:42:18.183Z,693
2022-11-14T08:44:18.163Z,634
2022-11-14T08:46:17.852Z,627
2022-11-14T08:48:17.829Z,604
2022-11-14T08:50:17.804Z,581
2022-11-14T08:52:17.533Z,635
2022-11-14T08:54:17.890Z,636
2022-11-14T08:56:17.909Z,549
2022-11-14T08:58:18.283Z,631
2022-11-14T09:00:18.103Z,600
2022-11-14T09:02:18.099Z,602
2022-11-14T09:04:18.483Z,630
2022-11-14T09:06:17.557Z,631
2022-11-14T09:08:18.539Z,624
2022-11-14T09:10:17.599Z,693
2022-11-14T09:12:17.677Z,639
2022-11-14T09:14:17.802Z,643
2022-11-14T09:16:18.294Z,689
2022-11-14T09:18:18.357Z,696
2022-11-14T09:20:18.185Z,612
2022-11-14T09:22:18.181Z,589
2022-11-14T09:24:18.099Z,638
2022-11-14T09:26:18.276Z,624
2022-11-14T09:28:18.225Z,684
2022-11-14T09:30:18.165Z,636
2022-11-14T09:32:18.211Z,723
2022-11-14T09:34:18.390Z,567
2022-11-14T09:36:18.176Z,675
2022-11-14T09:38:17.841Z,699
2022-11-14T09:40:17.815Z,618
2022-11-14T09:42:17.752Z,664
2022-11-14T09:44:20.459Z,653
2022-11-14T09:46:17.762Z,679
2022-11-14T09:48:17.823Z,714
2022-11-14T09:50:20.626Z,657
2022-11-14T09:52:18.347Z,664
2022-11-14T09:54:17.782Z,652
2022-11-14T09:56:17.832Z,679
2022-11-14T09:58:17.776Z,691
2022-11-14T10:00:17.931Z,638
2022-11-14T10:02:18.164Z,653
2022-11-14T10:04:17.641Z,638
2022-11-14T10:06:17.569Z,659
2022-11-14T10:08:18.239Z,525
2022-11-14T10:10:17.909Z,684
2022-11-14T10:12:18.366Z,569
2022-11-14T10:14:17.862Z,594
2022-11-14T10:16:18.524Z,726
2022-11-14T10:18:17.516Z,670
2022-11-14T10:20:17.515Z,670
2022-11-14T10:22:18.428Z,682
2022-11-14T10:24:18.284Z,1101
2022-11-14T10:26:18.127Z,670
2022-11-14T10:28:17.968Z,679
2022-11-14T10:30:18.488Z,661
2022-11-14T10:32:18.457Z,653
2022-11-14T10:34:17.824Z,649
2022-11-14T10:36:17.745Z,641
2022-11-14T10:38:18.272Z,640
2022-11-14T10:40:18.191Z,637
2022-11-14T10:42:17.801Z,653
2022-11-14T10:44:17.759Z,658
2022-11-14T10:46:17.795Z,657
2022-11-14T10:48:17.559Z,662
2022-11-14T10:50:18.321Z,658
2022-11-14T10:52:18.136Z,687
2022-11-14T10:54:17.740Z,634
2022-11-14T10:56:17.587Z,695
2022-11-14T10:58:17.851Z,650
2022-11-14T11:00:17.895Z,667
2022-11-14T11:02:18.175Z,592
2022-11-14T11:04:17.837Z,712
2022-11-14T11:06:17.746Z,658
2022-11-14T11:08:41.792Z,669
2022-11-14T11:10:17.506Z,647
2022-11-14T11:12:17.557Z,659
2022-11-14T11:14:17.493Z,644
2022-11-14T11:16:18.564Z,610
2022-11-14T11:18:18.438Z,725
2022-11-14T11:20:17.508Z,657
2022-11-14T11:22:18.119Z,652
2022-11-14T11:24:18.125Z,685
2022-11-14T11:26:18.208Z,678
2022-11-14T11:28:18.166Z,674
2022-11-14T11:30:18.327Z,661
2022-11-14T11:32:18.275Z,632
2022-11-14T11:34:18.471Z,687
2022-11-14T11:36:18.147Z,655
2022-11-14T11:38:18.034Z,667
2022-11-14T11:40:18.050Z,678
2022-11-14T11:42:18.056Z,684
2022-11-14T11:44:26.476Z,676
2022-11-14T11:46:17.778Z,654
2022-11-14T11:48:33.498Z,665
2022-11-14T11:50:18.079Z,656
2022-11-14T11:52:19.107Z,684
2022-11-14T11:54:25.109Z,669
2022-11-14T11:56:21.437Z,690
2022-11-14T11:58:40.857Z,682
2022-11-14T12:00:18.170Z,671
2022-11-14T12:02:18.040Z,672
2022-11-14T12:04:17.819Z,660
2022-11-14T12:06:17.600Z,657
2022-11-14T12:08:21.460Z,672
2022-11-14T12:10:18.346Z,614
2022-11-14T12:12:18.277Z,662
2022-11-14T12:14:20.984Z,683
2022-11-14T12:17:23.466Z,685
2022-11-14T12:18:19.316Z,690
2022-11-14T12:20:23.436Z,648
2022-11-14T12:22:19.320Z,766
2022-11-14T12:24:18.711Z,693
2022-11-14T12:26:18.547Z,693
2022-11-14T12:28:18.980Z,686
2022-11-14T12:30:18.261Z,674
2022-11-14T12:32:18.628Z,617
2022-11-14T12:34:18.337Z,679
2022-11-14T12:36:17.979Z,682
2022-11-14T12:38:17.994Z,671
2022-11-14T12:40:17.822Z,647
2022-11-14T12:42:17.827Z,691
2022-11-14T12:44:17.687Z,677
2022-11-14T12:46:17.695Z,743
2022-11-14T12:48:17.496Z,690
2022-11-14T12:50:18.383Z,699
2022-11-14T12:52:18.434Z,688
2022-11-14T12:54:17.735Z,679
2022-11-14T12:56:17.540Z,679
2022-11-14T12:58:18.178Z,692
2022-11-14T13:00:18.343Z,686
2022-11-14T13:02:22.102Z,685
2022-11-14T13:04:18.117Z,680
2022-11-14T13:06:18.056Z,687
2022-11-14T13:08:18.303Z,687
2022-11-14T13:10:18.283Z,650
2022-11-14T13:12:18.220Z,679
2022-11-14T13:14:18.071Z,694
2022-11-14T13:16:18.094Z,673
2022-11-14T13:18:17.856Z,683
2022-11-14T13:20:17.761Z,684
2022-11-14T13:22:18.035Z,703
2022-11-14T13:24:18.054Z,688
2022-11-14T13:26:18.339Z,674
2022-11-14T13:28:24.667Z,665
2022-11-14T13:30:17.901Z,670
2022-11-14T13:32:17.739Z,675
2022-11-14T13:34:18.214Z,676
2022-11-14T13:36:18.266Z,669
2022-11-14T13:38:18.004Z,681
2022-11-14T13:40:17.901Z,674
2022-11-14T13:42:17.592Z,675
2022-11-14T13:44:17.439Z,650
2022-11-14T13:46:17.643Z,684
2022-11-14T13:48:17.614Z,682
2022-11-14T13:50:17.670Z,704
2022-11-14T13:52:17.758Z,699
2022-11-14T13:54:18.546Z,730
2022-11-14T13:56:17.480Z,699
2022-11-14T13:58:17.838Z,681
2022-11-14T14:00:20.611Z,643
2022-11-14T14:02:17.814Z,655
2022-11-14T14:04:17.622Z,640
2022-11-14T14:06:18.183Z,661
2022-11-14T14:08:18.101Z,672
2022-11-14T14:10:18.121Z,659
2022-11-14T14:12:18.238Z,665
2022-11-14T14:14:17.996Z,675
2022-11-14T14:16:18.228Z,648
2022-11-14T14:18:17.830Z,656
2022-11-14T14:20:17.563Z,653
2022-11-14T14:22:18.631Z,668
2022-11-14T14:24:17.502Z,660
2022-11-14T14:26:18.441Z,666
2022-11-14T14:28:18.245Z,665
2022-11-14T14:30:18.191Z,657
2022-11-14T14:32:17.765Z,610
2022-11-14T14:34:18.241Z,688
2022-11-14T14:36:18.097Z,679
2022-11-14T14:38:18.191Z,634
2022-11-14T14:40:18.202Z,713
2022-11-14T14:42:17.781Z,662
2022-11-14T14:44:17.849Z,666
2022-11-14T14:46:17.723Z,663
2022-11-14T14:48:17.618Z,652
2022-11-14T14:50:17.391Z,713
2022-11-14T14:52:18.304Z,668
2022-11-14T14:54:18.104Z,694
2022-11-14T14:56:17.678Z,706
2022-11-14T14:58:22.334Z,717
2022-11-14T15:00:17.394Z,706
2022-11-14T15:02:18.234Z,692
2022-11-14T15:04:17.924Z,711
2022-11-14T15:06:18.079Z,659
2022-11-14T15:08:17.850Z,711
2022-11-14T15:10:18.303Z,689
2022-11-14T15:12:18.411Z,683
2022-11-14T15:14:17.418Z,688
2022-11-14T15:16:17.915Z,686
2022-11-14T15:18:17.596Z,649
2022-11-14T15:20:17.818Z,701
2022-11-14T15:22:18.085Z,706
2022-11-14T15:24:17.954Z,665
2022-11-14T15:26:18.416Z,731
2022-11-14T15:28:17.503Z,720
2022-11-14T15:30:17.407Z,672
2022-11-14T15:32:17.484Z,657
2022-11-14T15:34:17.869Z,670
2022-11-14T15:36:17.871Z,666
2022-11-14T15:40:18.176Z,669
2022-11-14T15:42:18.258Z,663
2022-11-14T15:44:18.174Z,658
2022-11-14T15:46:17.489Z,646
2022-11-14T15:48:18.402Z,650
2022-11-14T15:50:18.257Z,644
2022-11-14T15:52:17.362Z,651
2022-11-14T15:54:17.627Z,651
2022-11-14T15:56:17.717Z,630
2022-11-14T15:58:33.167Z,646
2022-11-14T16:00:17.527Z,672
2022-11-14T16:02:17.473Z,650
2022-11-14T16:04:17.632Z,675
2022-11-14T16:06:17.521Z,656
2022-11-14T16:08:18.228Z,653
2022-11-14T16:10:17.950Z,671
2022-11-14T16:12:17.888Z,660
2022-11-14T16:14:17.736Z,655
2022-11-14T16:16:18.073Z,654
2022-11-14T16:18:17.658Z,650
2022-11-14T16:20:17.777Z,678
2022-11-14T16:22:17.648Z,640
2022-11-14T16:24:17.525Z,624
2022-11-14T16:26:17.569Z,631
2022-11-14T16:28:18.322Z,622
2022-11-14T16:30:18.344Z,637
2022-11-14T16:32:18.281Z,635
2022-11-14T16:34:18.166Z,625
2022-11-14T16:36:18.063Z,625
2022-11-14T16:38:18.253Z,622
2022-11-14T16:40:18.060Z,614
2022-11-14T16:42:17.581Z,617
2022-11-14T16:44:18.383Z,562
2022-11-14T16:46:17.643Z,614
2022-11-14T16:48:17.520Z,636
2022-11-14T16:50:18.338Z,627
2022-11-14T16:52:18.207Z,601
2022-11-14T16:54:18.239Z,614
2022-11-14T16:56:17.514Z,603
2022-11-14T16:58:18.334Z,598
2022-11-14T17:00:17.902Z,612
2022-11-14T17:02:17.755Z,612
2022-11-14T17:04:17.499Z,586
2022-11-14T17:06:17.898Z,594
2022-11-14T17:08:17.674Z,609
2022-11-14T17:10:17.490Z,589
2022-11-14T17:12:18.300Z,609
2022-11-14T17:14:17.562Z,609
2022-11-14T17:16:18.352Z,583
2022-11-14T17:18:17.763Z,589
2022-11-14T17:20:18.286Z,556
2022-11-14T17:22:17.879Z,597
2022-11-14T17:24:17.610Z,603
2022-11-14T17:26:17.500Z,597
2022-11-14T17:28:17.684Z,586
2022-11-14T17:30:18.092Z,585
2022-11-14T17:32:18.211Z,578
2022-11-14T17:34:17.714Z,598
2022-11-14T17:36:18.386Z,614
2022-11-14T17:38:18.224Z,571
2022-11-14T17:40:18.089Z,598
2022-11-14T17:42:17.940Z,599
2022-11-14T17:44:18.165Z,589
2022-11-14T17:46:18.351Z,585
2022-11-14T17:48:18.328Z,585
2022-11-14T17:50:17.676Z,601
2022-11-14T17:52:17.665Z,582
2022-11-14T17:54:17.420Z,595
2022-11-14T17:56:18.195Z,592
2022-11-14T17:58:18.178Z,596
2022-11-14T18:00:18.234Z,593
2022-11-14T18:02:18.135Z,596
2022-11-14T18:04:17.865Z,584
2022-11-14T18:06:17.657Z,560
2022-11-14T18:08:17.888Z,593
2022-11-14T18:10:18.093Z,585
2022-11-14T18:12:17.990Z,657
2022-11-14T18:14:17.650Z,581
2022-11-14T18:16:18.061Z,541
2022-11-14T18:18:18.183Z,614
2022-11-14T18:20:17.957Z,588
2022-11-14T18:22:18.120Z,600
2022-11-14T18:24:18.007Z,603
2022-11-14T18:26:17.559Z,603
2022-11-14T18:28:18.317Z,615
2022-11-14T18:30:40.190Z,574
2022-11-14T18:32:17.964Z,606
2022-11-14T18:34:18.231Z,566
2022-11-14T18:36:17.539Z,605
2022-11-14T18:38:18.530Z,598
2022-11-14T18:40:17.792Z,554
2022-11-14T18:42:17.809Z,613
2022-11-14T18:44:17.786Z,595
2022-11-14T18:46:17.773Z,684
2022-11-14T18:48:18.108Z,636
2022-11-14T18:50:18.828Z,611
2022-11-14T18:52:18.257Z,611
2022-11-14T18:54:18.028Z,616
2022-11-14T18:56:18.076Z,602
2022-11-14T18:58:18.039Z,564
2022-11-14T19:00:21.148Z,619
2022-11-14T19:02:18.197Z,647
2022-11-14T19:04:17.596Z,661
2022-11-14T19:06:17.601Z,589
2022-11-14T19:08:17.439Z,647
2022-11-14T19:10:18.383Z,623
2022-11-14T19:12:17.544Z,614
2022-11-14T19:14:17.552Z,621
2022-11-14T19:16:18.080Z,601
2022-11-14T19:18:18.260Z,615
2022-11-14T19:20:18.323Z,608
2022-11-14T19:22:17.614Z,617
2022-11-14T19:24:17.946Z,618
2022-11-14T19:26:17.878Z,595
2022-11-14T19:28:17.478Z,612
2022-11-14T19:30:17.432Z,569
2022-11-14T19:32:18.538Z,621
2022-11-14T19:34:17.919Z,619
2022-11-14T19:36:27.774Z,613
2022-11-14T19:38:18.031Z,633
2022-11-14T19:40:18.005Z,612
2022-11-14T19:42:17.786Z,608
2022-11-14T19:44:17.696Z,617
2022-11-14T19:46:18.003Z,629
2022-11-14T19:48:17.496Z,622
2022-11-14T19:50:18.517Z,619
2022-11-14T19:52:18.105Z,613
2022-11-14T19:54:17.997Z,626
2022-11-14T19:56:18.005Z,627
2022-11-14T19:58:17.930Z,632
2022-11-14T20:00:17.810Z,622
2022-11-14T20:02:17.917Z,586
2022-11-14T20:04:18.375Z,653
2022-11-14T20:06:17.530Z,605
2022-11-14T20:08:17.403Z,696
2022-11-14T20:10:17.919Z,622
2022-11-14T20:12:17.804Z,637
2022-11-14T20:14:18.000Z,628
2022-11-14T20:16:17.419Z,622
2022-11-14T20:18:17.448Z,617
2022-11-14T20:20:18.192Z,617
2022-11-14T20:22:18.085Z,619
2022-11-14T20:24:17.825Z,642
2022-11-14T20:26:18.035Z,690
2022-11-14T20:28:17.437Z,629
2022-11-14T20:30:17.474Z,637
2022-11-14T20:32:18.226Z,627
2022-11-14T20:34:17.908Z,628
2022-11-14T20:36:17.541Z,623
2022-11-14T20:38:17.666Z,623
2022-11-14T20:40:17.412Z,636
2022-11-14T20:42:17.702Z,632
2022-11-14T20:44:17.509Z,584
2022-11-14T20:46:18.349Z,651
2022-11-14T20:48:18.118Z,606
2022-11-14T20:50:17.919Z,681
2022-11-14T20:52:17.677Z,573
2022-11-14T20:54:17.494Z,658
2022-11-14T20:56:17.564Z,633
2022-11-14T20:58:17.591Z,631
2022-11-14T21:00:17.403Z,622
2022-11-14T21:02:18.257Z,624
2022-11-14T21:04:17.694Z,619
2022-11-14T21:06:17.423Z,614
2022-11-14T21:08:18.269Z,626
2022-11-14T21:10:17.878Z,681
2022-11-14T21:12:17.713Z,680
2022-11-14T21:14:17.599Z,624
2022-11-14T21:16:17.647Z,616
2022-11-14T21:18:17.502Z,626
2022-11-14T21:20:17.366Z,574
2022-11-14T21:22:18.155Z,662
2022-11-14T21:24:17.477Z,622
2022-11-14T21:26:18.323Z,608
2022-11-14T21:28:17.720Z,610
2022-11-14T21:30:17.721Z,606
2022-11-14T21:32:18.321Z,609
2022-11-14T21:34:18.180Z,613
2022-11-14T21:36:47.163Z,606
2022-11-14T21:38:18.086Z,621
2022-11-14T21:40:17.906Z,622
2022-11-14T21:42:18.704Z,601
2022-11-14T21:44:17.823Z,597
2022-11-14T21:46:17.688Z,606
2022-11-14T21:48:17.766Z,613
2022-11-14T21:50:17.589Z,611
2022-11-14T21:52:17.697Z,636
2022-11-14T21:54:17.486Z,612
2022-11-14T21:56:17.358Z,611
2022-11-14T21:58:18.037Z,609
2022-11-14T22:00:18.317Z,599
2022-11-14T22:02:17.500Z,605
2022-11-14T22:04:17.449Z,615
2022-11-14T22:06:17.750Z,612
2022-11-14T22:08:17.653Z,601
2022-11-14T22:10:17.542Z,612
2022-11-14T22:12:17.967Z,594
2022-11-14T22:14:17.639Z,598
2022-11-14T22:16:17.525Z,598
2022-11-14T22:18:17.735Z,611
2022-11-14T22:20:18.142Z,596
2022-11-14T22:22:17.879Z,608
2022-11-14T22:24:17.780Z,591
2022-11-14T22:26:18.289Z,604
2022-11-14T22:28:18.261Z,593
2022-11-14T22:30:18.002Z,610
2022-11-14T22:32:17.837Z,598
2022-11-14T22:34:17.815Z,610
2022-11-14T22:36:17.573Z,605
2022-11-14T22:38:17.764Z,591
2022-11-14T22:40:17.563Z,603
2022-11-14T22:42:17.497Z,615
2022-11-14T22:44:18.328Z,611
2022-11-14T22:46:17.578Z,611
2022-11-14T22:48:17.673Z,599
2022-11-14T22:50:17.506Z,618
2022-11-14T22:52:17.429Z,615
2022-11-14T22:54:18.281Z,618
2022-11-14T22:56:18.168Z,604
2022-11-14T22:58:17.796Z,619
2022-11-14T23:00:18.094Z,627
2022-11-14T23:02:17.756Z,685
2022-11-14T23:04:17.746Z,639
2022-11-14T23:06:17.657Z,625
2022-11-14T23:08:18.080Z,623
2022-11-14T23:10:17.649Z,640
2022-11-14T23:12:18.024Z,637
2022-11-14T23:14:17.803Z,602
2022-11-14T23:16:17.702Z,641
2022-11-14T23:18:17.848Z,632
2022-11-14T23:20:17.715Z,630
2022-11-14T23:22:17.500Z,629
2022-11-14T23:24:18.373Z,631
2022-11-14T23:26:18.266Z,634
2022-11-14T23:28:18.189Z,571
2022-11-14T23:30:17.660Z,641
2022-11-14T23:32:17.838Z,646
2022-11-14T23:34:17.663Z,634
2022-11-14T23:36:17.435Z,633
2022-11-14T23:38:17.592Z,579
2022-11-14T23:40:18.034Z,631
2022-11-14T23:42:17.839Z,616
2022-11-14T23:44:17.767Z,635
2022-11-14T23:46:18.159Z,639
2022-11-14T23:48:18.002Z,645
2022-11-14T23:50:17.854Z,653
2022-11-14T23:52:17.654Z,642
2022-11-14T23:54:18.237Z,654
2022-11-14T23:56:18.134Z,644
2022-11-14T23:58:18.154Z,640
